createdAt,value
2023-05-05T00:01:34.119Z,101300.09
2023-05-05T00:04:01.500Z,101293.06
2023-05-05T00:06:28.730Z,101295.69
2023-05-05T00:08:56.175Z,101301.19
2023-05-05T00:11:23.487Z,101291.47
2023-05-05T00:13:51.476Z,101286.25
2023-05-05T00:16:18.715Z,101281.63
2023-05-05T00:18:45.932Z,101289.47
2023-05-05T00:21:13.176Z,101288.59
2023-05-05T00:23:40.339Z,101287.72
2023-05-05T00:26:07.506Z,101289.75
2023-05-05T00:28:34.732Z,101289.16
2023-05-05T00:31:02.255Z,101292.44
2023-05-05T00:33:29.508Z,101296.00
2023-05-05T00:35:56.683Z,101296.34
2023-05-05T00:38:23.819Z,101291.41
2023-05-05T00:40:50.999Z,101297.72
2023-05-05T00:43:18.136Z,101285.53
2023-05-05T00:45:47.818Z,101296.41
2023-05-05T00:48:16.954Z,101278.72
2023-05-05T00:50:45.031Z,101288.41
2023-05-05T00:53:12.254Z,101283.72
2023-05-05T00:55:40.380Z,101278.78
2023-05-05T00:58:07.925Z,101282.69
2023-05-05T01:00:35.082Z,101275.69
2023-05-05T01:03:03.166Z,101275.34
2023-05-05T01:05:51.483Z,101276.75
2023-05-05T01:08:46.849Z,101279.25
2023-05-05T01:11:45.540Z,101281.97
2023-05-05T01:14:17.503Z,101272.41
2023-05-05T01:17:17.233Z,101267.31
2023-05-05T01:20:25.488Z,101261.06
2023-05-05T01:23:28.232Z,101268.28
2023-05-05T01:26:27.154Z,101265.84
2023-05-05T01:29:35.702Z,101257.78
2023-05-05T01:32:15.869Z,101255.06
2023-05-05T01:34:57.602Z,101254.38
2023-05-05T01:37:36.832Z,101255.06
2023-05-05T01:40:08.315Z,101243.84
2023-05-05T01:42:40.995Z,101249.28
2023-05-05T01:45:12.750Z,101249.16
2023-05-05T01:47:43.300Z,101252.38
2023-05-05T01:50:12.202Z,101245.63
2023-05-05T01:52:42.246Z,101246.16
2023-05-05T01:55:11.476Z,101244.63
2023-05-05T01:57:42.520Z,101248.38
2023-05-05T02:00:11.560Z,101239.91
2023-05-05T02:02:41.175Z,101240.13
2023-05-05T02:05:10.077Z,101236.53
2023-05-05T02:07:38.197Z,101239.94
2023-05-05T02:10:08.794Z,101248.41
2023-05-05T02:12:37.469Z,101240.06
2023-05-05T02:15:06.077Z,101235.53
2023-05-05T02:17:33.422Z,101230.38
2023-05-05T02:20:03.846Z,101234.25
2023-05-05T02:22:31.670Z,101228.63
2023-05-05T02:24:58.881Z,101234.78
2023-05-05T02:27:27.972Z,101233.94
2023-05-05T02:30:01.676Z,101233.03
2023-05-05T02:32:37.478Z,101233.91
2023-05-05T02:35:19.633Z,101225.38
2023-05-05T02:37:55.210Z,101225.88
2023-05-05T02:40:28.478Z,101229.16
2023-05-05T02:43:00.837Z,101226.06
2023-05-05T02:45:28.597Z,101225.28
2023-05-05T02:47:55.978Z,101223.84
2023-05-05T02:50:23.192Z,101221.75
2023-05-05T02:52:50.312Z,101227.88
2023-05-05T02:55:17.542Z,101214.28
2023-05-05T02:57:53.563Z,101212.91
2023-05-05T03:00:59.877Z,101217.91
2023-05-05T03:03:44.580Z,101214.78
2023-05-05T03:06:17.906Z,101215.66
2023-05-05T03:09:09.611Z,101217.09
2023-05-05T03:12:03.953Z,101205.72
2023-05-05T03:14:38.852Z,101208.84
2023-05-05T03:17:07.091Z,101205.44
2023-05-05T03:19:36.978Z,101204.38
2023-05-05T03:22:04.864Z,101208.91
2023-05-05T03:24:32.110Z,101210.06
2023-05-05T03:26:59.244Z,101208.47
2023-05-05T03:29:26.706Z,101216.22
2023-05-05T03:31:53.884Z,101209.25
2023-05-05T03:34:21.053Z,101211.84
2023-05-05T03:36:48.199Z,101210.06
2023-05-05T03:39:15.334Z,101209.53
2023-05-05T03:41:42.479Z,101211.34
2023-05-05T03:44:09.673Z,101212.91
2023-05-05T03:46:36.836Z,101214.59
2023-05-05T03:49:03.990Z,101216.41
2023-05-05T03:51:31.654Z,101219.09
2023-05-05T03:53:58.805Z,101208.81
2023-05-05T03:56:26.045Z,101206.69
2023-05-05T03:58:53.183Z,101210.91
2023-05-05T04:01:20.414Z,101213.56
2023-05-05T04:03:47.895Z,101204.34
2023-05-05T04:06:15.279Z,101207.91
2023-05-05T04:08:42.404Z,101209.94
2023-05-05T04:11:09.567Z,101206.16
2023-05-05T04:13:36.741Z,101203.25
2023-05-05T04:16:04.203Z,101201.09
2023-05-05T04:18:31.841Z,101205.41
2023-05-05T04:20:59.031Z,101197.97
2023-05-05T04:23:26.148Z,101204.34
2023-05-05T04:25:53.308Z,101209.53
2023-05-05T04:28:21.741Z,101216.69
2023-05-05T04:30:49.337Z,101215.03
2023-05-05T04:33:16.469Z,101216.22
2023-05-05T04:35:43.607Z,101216.47
2023-05-05T04:38:10.762Z,101217.06
2023-05-05T04:40:41.308Z,101211.03
2023-05-05T04:43:08.521Z,101213.09
2023-05-05T04:45:35.801Z,101223.41
2023-05-05T04:48:05.027Z,101228.53
2023-05-05T04:50:32.564Z,101221.03
2023-05-05T04:52:59.713Z,101216.56
2023-05-05T04:55:28.228Z,101218.94
2023-05-05T04:57:55.432Z,101224.78
2023-05-05T05:00:23.245Z,101223.88
2023-05-05T05:02:50.545Z,101222.63
2023-05-05T05:05:17.798Z,101230.59
2023-05-05T05:07:45.866Z,101227.28
2023-05-05T05:10:13.033Z,101224.81
2023-05-05T05:12:40.503Z,101225.47
2023-05-05T05:15:08.785Z,101233.50
2023-05-05T05:17:35.981Z,101233.22
2023-05-05T05:20:04.884Z,101229.69
2023-05-05T05:22:32.160Z,101226.56
2023-05-05T05:24:59.377Z,101217.13
2023-05-05T05:27:26.534Z,101217.50
2023-05-05T05:29:53.664Z,101220.66
2023-05-05T05:32:20.855Z,101225.34
2023-05-05T05:34:48.005Z,101228.22
2023-05-05T05:37:15.174Z,101229.81
2023-05-05T05:39:43.770Z,101234.50
2023-05-05T05:42:11.063Z,101226.44
2023-05-05T05:44:38.196Z,101229.34
2023-05-05T05:47:05.521Z,101216.41
2023-05-05T05:49:32.667Z,101215.41
2023-05-05T05:51:59.799Z,101208.13
2023-05-05T05:54:26.944Z,101220.28
2023-05-05T05:56:54.092Z,101225.28
2023-05-05T05:59:21.236Z,101213.84
2023-05-05T06:01:48.381Z,101207.13
2023-05-05T06:04:15.509Z,101204.75
2023-05-05T06:06:42.731Z,101204.25
2023-05-05T06:09:09.858Z,101191.41
2023-05-05T06:11:37.070Z,101192.00
2023-05-05T06:14:04.288Z,101199.38
2023-05-05T06:16:31.685Z,101192.69
2023-05-05T06:18:58.938Z,101187.03
2023-05-05T06:21:26.061Z,101190.81
2023-05-05T06:23:53.195Z,101186.94
2023-05-05T06:26:21.459Z,101191.97
2023-05-05T06:28:48.602Z,101188.91
2023-05-05T06:31:15.769Z,101199.72
2023-05-05T06:33:43.085Z,101191.06
2023-05-05T06:36:10.271Z,101196.06
2023-05-05T06:38:37.421Z,101199.00
2023-05-05T06:41:04.809Z,101201.75
2023-05-05T06:43:32.001Z,101194.22
2023-05-05T06:45:59.144Z,101198.84
2023-05-05T06:48:26.305Z,101189.34
2023-05-05T06:50:53.433Z,101190.38
2023-05-05T06:53:20.717Z,101193.31
2023-05-05T06:55:48.156Z,101199.25
2023-05-05T06:58:15.328Z,101198.88
2023-05-05T07:00:42.737Z,101195.41
2023-05-05T07:03:10.274Z,101197.84
2023-05-05T07:05:37.479Z,101203.03
2023-05-05T07:08:04.753Z,101212.84
2023-05-05T07:10:32.829Z,101214.44
2023-05-05T07:13:00.038Z,101220.63
2023-05-05T07:15:29.567Z,101214.38
2023-05-05T07:17:57.761Z,101205.19
2023-05-05T07:20:25.368Z,101195.19
2023-05-05T07:22:52.530Z,101187.59
2023-05-05T07:25:19.871Z,101194.88
2023-05-05T07:27:47.023Z,101208.19
2023-05-05T07:30:18.106Z,101207.84
2023-05-05T07:32:46.654Z,101215.66
2023-05-05T07:35:13.955Z,101204.63
2023-05-05T07:37:41.105Z,101207.88
2023-05-05T07:40:09.021Z,101199.03
2023-05-05T07:42:36.476Z,101203.78
2023-05-05T07:45:05.189Z,101200.06
2023-05-05T07:47:32.702Z,101198.72
2023-05-05T07:50:00.865Z,101197.44
2023-05-05T07:52:44.139Z,101189.28
2023-05-05T07:55:13.552Z,101182.00
2023-05-05T07:57:41.806Z,101174.22
2023-05-05T08:00:10.628Z,101190.69
2023-05-05T08:02:38.130Z,101190.75
2023-05-05T08:05:05.957Z,101189.97
2023-05-05T08:07:33.281Z,101186.72
2023-05-05T08:10:00.568Z,101200.97
2023-05-05T08:12:27.738Z,101203.59
2023-05-05T08:14:54.871Z,101188.59
2023-05-05T08:17:22.174Z,101189.31
2023-05-05T08:19:52.938Z,101188.56
2023-05-05T08:22:22.016Z,101195.03
2023-05-05T08:24:49.141Z,101184.88
2023-05-05T08:27:16.355Z,101192.78
2023-05-05T08:29:43.489Z,101185.34
2023-05-05T08:32:10.791Z,101179.47
2023-05-05T08:34:37.949Z,101185.72
2023-05-05T08:37:05.093Z,101186.59
2023-05-05T08:39:32.242Z,101172.69
2023-05-05T08:41:59.381Z,101171.41
2023-05-05T08:44:27.214Z,101182.44
2023-05-05T08:46:56.013Z,101182.50
2023-05-05T08:49:25.356Z,101193.72
2023-05-05T08:51:54.801Z,101193.13
2023-05-05T08:54:27.283Z,101195.34
2023-05-05T08:57:01.810Z,101203.72
2023-05-05T08:59:33.344Z,101198.94
2023-05-05T09:02:01.974Z,101189.50
2023-05-05T09:04:29.283Z,101185.72
2023-05-05T09:07:01.082Z,101181.47
2023-05-05T09:09:29.309Z,101181.22
2023-05-05T09:11:58.810Z,101176.69
2023-05-05T09:14:25.970Z,101184.16
2023-05-05T09:16:53.157Z,101185.53
2023-05-05T09:19:20.517Z,101173.34
2023-05-05T09:21:50.419Z,101172.22
2023-05-05T09:24:18.612Z,101173.06
2023-05-05T09:26:47.826Z,101167.47
2023-05-05T09:29:22.631Z,101164.84
2023-05-05T09:32:11.077Z,101189.78
2023-05-05T09:34:38.289Z,101188.56
2023-05-05T09:37:06.030Z,101181.66
2023-05-05T09:39:33.257Z,101182.13
2023-05-05T09:42:01.222Z,101166.44
2023-05-05T09:44:37.533Z,101162.16
2023-05-05T09:47:09.475Z,101164.00
2023-05-05T09:49:42.194Z,101151.19
2023-05-05T09:52:16.381Z,101140.44
2023-05-05T09:54:44.056Z,101139.16
2023-05-05T09:57:33.469Z,101141.38
2023-05-05T10:00:04.195Z,101143.97
2023-05-05T10:02:40.641Z,101142.91
2023-05-05T10:05:11.334Z,101142.22
2023-05-05T10:07:41.200Z,101138.34
2023-05-05T10:10:12.262Z,101135.13
2023-05-05T10:12:40.577Z,101123.41
2023-05-05T10:15:11.066Z,101116.88
2023-05-05T10:20:20.532Z,101104.19
2023-05-05T10:22:53.348Z,101115.22
2023-05-05T10:25:35.090Z,101111.66
2023-05-05T10:28:09.621Z,101100.91
2023-05-05T10:30:44.132Z,101106.34
2023-05-05T10:35:57.211Z,101097.19
2023-05-05T10:38:29.288Z,101089.75
2023-05-05T10:40:59.174Z,101086.09
2023-05-05T10:43:30.829Z,101078.81
2023-05-05T10:45:59.358Z,101081.34
2023-05-05T10:48:40.785Z,101086.44
2023-05-05T10:51:39.460Z,101087.63
2023-05-05T10:54:10.529Z,101088.47
2023-05-05T10:56:41.744Z,101101.91
2023-05-05T10:59:36.732Z,101098.94
2023-05-05T11:02:27.211Z,101096.28
2023-05-05T11:05:17.930Z,101101.38
2023-05-05T11:07:47.229Z,101101.06
2023-05-05T11:10:16.647Z,101105.69
2023-05-05T11:12:57.687Z,101107.06
2023-05-05T11:15:27.769Z,101096.16
2023-05-05T11:18:07.812Z,101091.66
2023-05-05T11:20:35.256Z,101080.59
2023-05-05T11:23:02.293Z,101085.47
2023-05-05T11:25:35.341Z,101077.22
2023-05-05T11:28:14.536Z,101073.47
2023-05-05T11:30:57.921Z,101075.31
2023-05-05T11:33:32.338Z,101079.50
2023-05-05T11:36:07.617Z,101082.94
2023-05-05T11:39:08.747Z,101077.84
2023-05-05T11:42:26.730Z,101082.13
2023-05-05T11:44:54.890Z,101076.34
2023-05-05T11:47:21.914Z,101078.56
2023-05-05T11:49:49.459Z,101085.97
2023-05-05T11:52:16.629Z,101086.88
2023-05-05T11:54:49.039Z,101087.69
2023-05-05T11:57:21.151Z,101083.31
2023-05-05T12:00:01.290Z,101080.81
2023-05-05T12:02:30.037Z,101069.16
2023-05-05T12:04:59.253Z,101078.28
2023-05-05T12:07:30.383Z,101069.22
2023-05-05T12:09:58.182Z,101079.66
2023-05-05T12:12:40.474Z,101076.56
2023-05-05T12:15:10.159Z,101065.00
2023-05-05T12:17:44.752Z,101062.41
2023-05-05T12:20:13.209Z,101061.56
2023-05-05T12:22:41.128Z,101050.59
2023-05-05T12:25:09.627Z,101054.16
2023-05-05T12:27:36.983Z,101054.75
2023-05-05T12:30:16.736Z,101050.44
2023-05-05T12:32:45.642Z,101042.03
2023-05-05T12:35:13.835Z,101043.69
2023-05-05T12:37:42.239Z,101040.22
2023-05-05T12:40:49.321Z,101050.34
2023-05-05T12:43:34.116Z,101040.31
2023-05-05T12:46:06.916Z,101036.91
2023-05-05T12:48:37.785Z,101024.25
2023-05-05T12:51:23.616Z,101038.56
2023-05-05T12:54:11.774Z,101023.22
2023-05-05T12:56:45.421Z,101032.53
2023-05-05T12:59:32.792Z,101019.22
2023-05-05T13:02:01.444Z,101015.97
2023-05-05T13:04:28.941Z,101007.53
2023-05-05T13:07:14.556Z,101008.47
2023-05-05T13:09:42.382Z,101021.91
2023-05-05T13:12:12.319Z,101015.25
2023-05-05T13:14:40.906Z,101011.84
2023-05-05T13:17:08.302Z,101010.97
2023-05-05T13:19:35.830Z,101027.00
2023-05-05T13:22:03.112Z,101001.59
2023-05-05T13:24:46.619Z,101004.09
2023-05-05T13:27:17.426Z,100997.25
2023-05-05T13:29:44.656Z,101003.06
2023-05-05T13:32:11.846Z,101011.56
2023-05-05T13:34:39.348Z,100998.69
2023-05-05T13:37:06.816Z,101004.53
2023-05-05T13:39:34.034Z,100986.72
2023-05-05T13:42:01.176Z,100985.81
2023-05-05T13:44:28.361Z,100983.38
2023-05-05T13:46:55.559Z,100975.66
2023-05-05T13:49:22.758Z,100980.63
2023-05-05T13:51:49.916Z,100967.97
2023-05-05T13:54:17.170Z,100969.63
2023-05-05T13:56:44.342Z,100972.91
2023-05-05T13:59:11.524Z,100972.19
2023-05-05T14:01:39.308Z,100962.78
2023-05-05T14:04:06.593Z,100961.94
2023-05-05T14:06:33.964Z,100965.31
2023-05-05T14:09:01.357Z,100962.63
2023-05-05T14:11:28.529Z,100963.50
2023-05-05T14:13:55.690Z,100952.50
2023-05-05T14:16:22.861Z,100948.25
2023-05-05T14:18:50.005Z,100947.44
2023-05-05T14:21:17.196Z,100948.91
2023-05-05T14:23:44.409Z,100951.38
2023-05-05T14:26:11.607Z,100955.75
2023-05-05T14:28:38.753Z,100948.13
2023-05-05T14:31:06.041Z,100934.66
2023-05-05T14:33:33.203Z,100937.19
2023-05-05T14:36:00.360Z,100937.97
2023-05-05T14:38:27.567Z,100937.91
2023-05-05T14:40:54.726Z,100937.84
2023-05-05T14:43:21.887Z,100931.09
2023-05-05T14:45:49.043Z,100929.31
2023-05-05T14:48:16.593Z,100943.00
2023-05-05T14:50:46.258Z,100937.91
2023-05-05T14:53:13.525Z,100944.00
2023-05-05T14:55:40.738Z,100944.00
2023-05-05T14:58:07.880Z,100949.88
2023-05-05T15:00:35.025Z,100934.47
2023-05-05T15:03:02.476Z,100938.69
2023-05-05T15:05:29.666Z,100941.22
2023-05-05T15:07:56.792Z,100936.88
2023-05-05T15:10:23.945Z,100934.41
2023-05-05T15:12:51.208Z,100939.44
2023-05-05T15:15:18.392Z,100937.06
2023-05-05T15:17:45.786Z,100928.31
2023-05-05T15:20:13.118Z,100929.19
2023-05-05T15:22:40.227Z,100930.03
2023-05-05T15:25:12.060Z,100915.72
2023-05-05T15:27:39.727Z,100919.91
2023-05-05T15:30:07.801Z,100915.59
2023-05-05T15:32:35.058Z,100909.75
2023-05-05T15:35:02.295Z,100913.06
2023-05-05T15:37:29.521Z,100912.22
2023-05-05T15:39:56.907Z,100910.47
2023-05-05T15:42:24.831Z,100903.56
2023-05-05T15:44:52.376Z,100907.94
2023-05-05T15:47:19.519Z,100896.75
2023-05-05T15:49:46.642Z,100901.66
2023-05-05T15:52:14.013Z,100894.38
2023-05-05T15:54:41.436Z,100895.84
2023-05-05T15:57:09.136Z,100884.78
2023-05-05T15:59:36.433Z,100893.28
2023-05-05T16:02:03.648Z,100889.84
2023-05-05T16:04:30.959Z,100879.63
2023-05-05T16:06:58.099Z,100884.78
2023-05-05T16:09:25.242Z,100892.38
2023-05-05T16:11:55.536Z,100887.31
2023-05-05T16:14:22.728Z,100879.56
2023-05-05T16:16:49.911Z,100879.69
2023-05-05T16:19:18.050Z,100876.91
2023-05-05T16:21:45.508Z,100890.53
2023-05-05T16:24:16.316Z,100882.91
2023-05-05T16:26:43.801Z,100879.44
2023-05-05T16:29:11.821Z,100876.69
2023-05-05T16:31:39.501Z,100880.66
2023-05-05T16:34:07.018Z,100879.28
2023-05-05T16:36:34.172Z,100879.13
2023-05-05T16:39:01.342Z,100885.09
2023-05-05T16:41:28.562Z,100891.88
2023-05-05T16:43:56.225Z,100885.88
2023-05-05T16:46:23.516Z,100879.94
2023-05-05T16:48:50.893Z,100896.66
2023-05-05T16:51:18.021Z,100888.28
2023-05-05T16:56:12.964Z,100884.16
2023-05-05T16:58:40.481Z,100885.53
2023-05-05T17:01:07.620Z,100896.53
2023-05-05T17:03:34.775Z,100893.06
2023-05-05T17:06:02.018Z,100911.97
2023-05-05T17:08:29.216Z,100916.13
2023-05-05T17:10:56.353Z,100934.84
2023-05-05T17:13:23.552Z,100942.94
2023-05-05T17:15:51.400Z,100949.03
2023-05-05T17:18:21.070Z,100965.94
2023-05-05T17:20:49.280Z,100967.72
2023-05-05T17:23:16.637Z,100972.03
2023-05-05T17:25:43.885Z,100973.56
2023-05-05T17:28:11.139Z,100975.97
2023-05-05T17:30:38.304Z,100984.56
2023-05-05T17:33:05.644Z,100976.22
2023-05-05T17:35:32.899Z,100985.91
2023-05-05T17:38:00.122Z,100999.63
2023-05-05T17:40:27.256Z,101015.28
2023-05-05T17:42:54.490Z,101025.94
2023-05-05T17:45:21.640Z,101035.06
2023-05-05T17:47:48.832Z,101041.69
2023-05-05T17:50:16.060Z,101034.44
2023-05-05T17:52:44.991Z,101053.66
2023-05-05T17:55:12.723Z,101069.50
2023-05-05T17:57:40.013Z,101080.88
2023-05-05T18:00:08.786Z,101081.78
2023-05-05T18:02:37.128Z,101095.88
2023-05-05T18:05:05.321Z,101114.13
2023-05-05T18:07:33.602Z,101107.50
2023-05-05T18:10:00.767Z,101105.56
2023-05-05T18:12:27.976Z,101112.31
2023-05-05T18:14:55.156Z,101110.78
2023-05-05T18:17:22.365Z,101104.75
2023-05-05T18:19:49.561Z,101107.91
2023-05-05T18:22:17.398Z,101108.41
2023-05-05T18:24:46.373Z,101103.00
2023-05-05T18:27:13.529Z,101093.03
2023-05-05T18:29:40.756Z,101076.09
2023-05-05T18:32:07.937Z,101076.41
2023-05-05T18:34:35.132Z,101082.88
2023-05-05T18:37:02.305Z,101087.63
2023-05-05T18:39:29.548Z,101088.75
2023-05-05T18:41:56.763Z,101086.91
2023-05-05T18:44:23.957Z,101092.84
2023-05-05T18:46:51.474Z,101097.72
2023-05-05T18:49:18.749Z,101097.81
2023-05-05T18:51:45.926Z,101107.09
2023-05-05T18:54:13.060Z,101103.13
2023-05-05T18:56:40.191Z,101094.44
2023-05-05T18:59:07.730Z,101091.50
2023-05-05T19:01:34.871Z,101091.72
2023-05-05T19:04:02.051Z,101090.81
2023-05-05T19:06:29.216Z,101089.56
2023-05-05T19:08:56.721Z,101094.06
2023-05-05T19:11:24.145Z,101097.13
2023-05-05T19:13:51.344Z,101093.13
2023-05-05T19:16:18.636Z,101104.63
2023-05-05T19:18:45.919Z,101096.63
2023-05-05T19:21:13.088Z,101097.09
2023-05-05T19:23:40.899Z,101096.75
2023-05-05T19:26:08.094Z,101101.13
2023-05-05T19:28:35.284Z,101102.38
2023-05-05T19:31:02.403Z,101102.25
2023-05-05T19:33:29.550Z,101091.63
2023-05-05T19:35:56.701Z,101087.31
2023-05-05T19:38:23.961Z,101073.63
2023-05-05T19:40:51.126Z,101063.34
2023-05-05T19:43:18.284Z,101067.78
2023-05-05T19:45:45.774Z,101077.66
2023-05-05T19:48:12.975Z,101080.19
2023-05-05T19:50:40.296Z,101076.94
2023-05-05T19:53:07.437Z,101080.72
2023-05-05T19:55:34.591Z,101068.00
2023-05-05T19:58:01.730Z,101074.94
2023-05-05T20:00:28.893Z,101071.81
2023-05-05T20:02:56.165Z,101074.56
2023-05-05T20:05:23.434Z,101068.94
2023-05-05T20:07:50.750Z,101069.56
2023-05-05T20:10:17.942Z,101071.03
2023-05-05T20:12:48.258Z,101069.09
2023-05-05T20:15:19.882Z,101067.38
2023-05-05T20:17:48.242Z,101066.00
2023-05-05T20:20:22.660Z,101053.94
2023-05-05T20:22:49.868Z,101040.69
2023-05-05T20:25:17.294Z,101048.97
2023-05-05T20:27:45.711Z,101053.09
2023-05-05T20:30:13.619Z,101051.19
2023-05-05T20:32:41.348Z,101050.97
2023-05-05T20:35:09.386Z,101046.97
2023-05-05T20:37:36.610Z,101041.78
2023-05-05T20:40:04.062Z,101041.38
2023-05-05T20:42:31.278Z,101038.16
2023-05-05T20:45:01.137Z,101039.72
2023-05-05T20:47:28.353Z,101046.19
2023-05-05T20:49:55.539Z,101033.88
2023-05-05T20:52:22.761Z,101047.72
2023-05-05T20:54:49.907Z,101040.44
2023-05-05T20:57:17.025Z,101043.09
2023-05-05T20:59:44.182Z,101033.25
2023-05-05T21:02:11.386Z,101045.47
2023-05-05T21:04:38.595Z,101041.91
2023-05-05T21:07:06.529Z,101034.38
2023-05-05T21:09:35.251Z,101038.13
2023-05-05T21:12:02.500Z,101030.81
2023-05-05T21:14:29.643Z,101032.16
2023-05-05T21:16:56.955Z,101025.44
2023-05-05T21:19:24.126Z,101030.56
2023-05-05T21:21:51.282Z,101022.59
2023-05-05T21:24:18.460Z,101024.53
2023-05-05T21:26:45.751Z,101025.88
2023-05-05T21:29:12.948Z,101028.75
2023-05-05T21:31:40.552Z,101032.25
2023-05-05T21:34:07.730Z,101029.03
2023-05-05T21:36:34.983Z,101020.81
2023-05-05T21:39:02.176Z,101025.91
2023-05-05T21:41:29.318Z,101022.59
2023-05-05T21:43:57.827Z,101022.44
2023-05-05T21:46:25.133Z,101025.66
2023-05-05T21:48:52.414Z,101021.59
2023-05-05T21:51:20.018Z,101020.28
2023-05-05T21:53:47.169Z,101024.69
2023-05-05T21:56:14.373Z,101020.28
2023-05-05T21:58:41.564Z,101026.97
2023-05-05T22:01:08.774Z,101029.06
2023-05-05T22:03:36.200Z,101030.09
2023-05-05T22:06:03.558Z,101028.59
2023-05-05T22:08:30.785Z,101030.75
2023-05-05T22:10:57.989Z,101017.91
2023-05-05T22:13:25.147Z,101035.50
2023-05-05T22:15:52.476Z,101030.09
2023-05-05T22:18:19.748Z,101030.78
2023-05-05T22:20:47.090Z,101028.75
2023-05-05T22:23:14.466Z,101040.50
2023-05-05T22:25:41.937Z,101032.47
2023-05-05T22:28:09.099Z,101029.88
2023-05-05T22:30:36.305Z,101040.63
2023-05-05T22:33:03.720Z,101035.59
2023-05-05T22:35:31.135Z,101037.44
2023-05-05T22:37:58.427Z,101033.91
2023-05-05T22:40:25.618Z,101035.84
2023-05-05T22:42:52.958Z,101031.72
2023-05-05T22:45:21.809Z,101021.66
2023-05-05T22:47:50.320Z,101018.19
2023-05-05T22:50:18.200Z,101012.34
2023-05-05T22:52:45.581Z,101013.41
2023-05-05T22:55:14.499Z,101014.81
2023-05-05T22:57:42.317Z,101005.72
2023-05-05T23:00:10.669Z,101010.75
2023-05-05T23:02:38.653Z,101011.63
2023-05-05T23:05:06.626Z,101019.72
2023-05-05T23:07:34.623Z,101018.69
2023-05-05T23:10:03.110Z,101004.84
2023-05-05T23:12:30.586Z,100999.47
2023-05-05T23:14:57.730Z,100989.31
2023-05-05T23:17:24.904Z,100982.03
2023-05-05T23:19:52.109Z,100980.13
2023-05-05T23:22:19.373Z,100972.34
2023-05-05T23:24:46.559Z,100984.97
2023-05-05T23:27:13.698Z,100990.59
2023-05-05T23:29:40.841Z,101008.50
2023-05-05T23:32:08.259Z,101012.84
2023-05-05T23:34:35.381Z,101023.56
2023-05-05T23:37:04.065Z,101032.50
2023-05-05T23:39:34.600Z,101038.25
2023-05-05T23:42:01.725Z,101046.44
2023-05-05T23:44:28.881Z,101036.66
2023-05-05T23:46:56.029Z,101044.13
2023-05-05T23:49:24.893Z,101047.88
2023-05-05T23:51:52.788Z,101040.44
2023-05-05T23:54:19.981Z,101037.75
2023-05-05T23:56:49.946Z,101041.69
2023-05-05T23:59:17.146Z,101042.00
